Alpine Airstrip, AK

6:13 AM AKST on February 13, 2016 (GMT -0900)
Deadhorse Alpine Airstrip | | Change Station
CLOSE
Current Station
Airport
Location: Deadhorse Alpine Airstrip,
Elevation: 16 ft
Nearby Weather Stations
Active Advisory: Blizzard Warning

Elev 16 ft 70.34 °N, 150.94 °W | Updated 1 hour ago

Blowing Snow
Blowing Snow Snow
1 °F
Feels Like -25 °F
N
34
Wind Variable Wind from ENE
Gusts 48 mph

Today
High -- | Low -- °F
--% Chance of Precip.
Yesterday
High -- | Low -- °F
Precip. -- in
Pressure 29.68 in
Visibility 0.4 miles
Clouds Overcast 1300 ft
Windchill -25 °F
Dew Point -4 °F
Humidity 78%
Rainfall 0.00 in
Snow Depth Not available.
9:51 AM 4:46 PM
Waxing Crescent, 31% visible
METAR PALP 131350Z 06030G42KT 3/8SM BLSN SN OVC013 M17/M20 A2968
Pressure 29.68 in
Visibility 0.4 miles
Clouds Overcast 1300 ft
Windchill -25 °F
Dew Point -4 °F
Humidity 78%
Rainfall 0.00 in
Snow Depth Not available.
9:51 AM 4:46 PM
Waxing Crescent, 31% visible
METAR PALP 131350Z 06030G42KT 3/8SM BLSN SN OVC013 M17/M20 A2968

10-Day Weather Forecast

Almanac

Astronomy

Feb. 13, 2016 Rise Set
Actual Time
Civil Twilight
Nautical Twilight
Astronomical Twilight
Moon
Length of Visible Light
Length of Day
Tomorrow will be .
, % of the Moon is Illuminated

Today's Extremes

State Highs State Lows

Community

WunderPhotos

Upload Photos

1,892,575 photos uploaded!

WunderBlog® & News

Nearby

Air Quality

  Air Quality AQ Index Pollutant
Not available.

Snow Depth

Station Depth Elevation

Earthquake Activity

City Distance Mag. Time & Date
Minimum magnitude displayed is 2.5.

Coastal Water Temperatures

Place Temperature

Stations

Nearby Weather Stations

Station Location Temp. Windchill Dew Point Humidity Wind Precip. Elev Updated Type
                   

Watches & Warnings

Blizzard Warning
Issued: 3:54 AM AKST Feb. 13, 2016 – National Weather Service

... Blizzard Warning remains in effect until 6 am akst Sunday...

* blowing snow... blowing snow reducing visibility to one quarter
mile or less at times.

* Winds... east winds to 40 mph with gusts to 50 mph.

* Timing... blizzard conditions will continue through tonight. Slow
improvement in conditions will begin Sunday as winds start to
decrease.

* Impacts... visibility will be very poor and snow will
accumulate into drifts. Whiteout conditions will occur. Travel
and outdoor activities will be difficult.

Precautionary/preparedness actions...

A Blizzard Warning means severe winter weather conditions in
blowing snow with strong winds and very poor visibilities are
occurring or expected.